createdAt,value
2022-07-26T00:02:18.744Z,27.80
2022-07-26T00:07:24.723Z,28.00
2022-07-26T00:12:30.602Z,28.10
2022-07-26T00:17:36.174Z,28.30
2022-07-26T00:22:43.506Z,28.40
2022-07-26T00:27:49.315Z,28.40
2022-07-26T00:32:55.518Z,28.60
2022-07-26T00:38:07.804Z,28.80
2022-07-26T00:43:14.586Z,29.30
2022-07-26T00:48:20.788Z,29.80
2022-07-26T00:53:27.011Z,30.30
2022-07-26T00:58:32.693Z,30.30
2022-07-26T01:03:39.493Z,30.40
2022-07-26T01:08:46.032Z,30.90
2022-07-26T01:13:53.108Z,31.40
2022-07-26T01:18:58.601Z,31.70
2022-07-26T01:24:05.453Z,31.80
2022-07-26T01:29:11.613Z,32.30
2022-07-26T01:34:17.974Z,32.10
2022-07-26T01:39:26.529Z,31.80
2022-07-26T01:44:32.290Z,31.60
2022-07-26T01:49:37.535Z,31.50
2022-07-26T01:54:43.163Z,31.10
2022-07-26T01:59:48.969Z,31.00
2022-07-26T02:05:00.441Z,31.10
2022-07-26T02:10:07.222Z,32.10
2022-07-26T02:15:15.369Z,32.90
2022-07-26T02:20:21.288Z,33.40
2022-07-26T02:25:27.212Z,33.70
2022-07-26T02:30:33.699Z,34.20
2022-07-26T02:35:39.335Z,34.60
2022-07-26T02:40:45.979Z,34.70
2022-07-26T02:46:01.121Z,34.80
2022-07-26T02:51:08.177Z,35.10
2022-07-26T02:56:14.152Z,35.00
2022-07-26T03:01:41.525Z,35.00
2022-07-26T03:06:47.301Z,35.10
2022-07-26T03:11:52.704Z,34.30
2022-07-26T03:16:59.109Z,34.60
2022-07-26T03:22:04.682Z,35.30
2022-07-26T03:27:11.084Z,35.20
2022-07-26T03:32:17.053Z,35.20
2022-07-26T03:37:23.355Z,35.10
2022-07-26T03:42:29.276Z,35.20
2022-07-26T03:47:35.117Z,34.90
2022-07-26T03:52:41.124Z,34.70
2022-07-26T03:57:47.302Z,34.90
2022-07-26T04:02:53.041Z,35.10
2022-07-26T04:07:58.829Z,34.90
2022-07-26T04:13:05.426Z,34.90
2022-07-26T04:18:11.518Z,35.00
2022-07-26T04:23:17.045Z,35.10
2022-07-26T04:28:22.949Z,34.80
2022-07-26T04:33:28.960Z,34.70
2022-07-26T04:38:34.715Z,34.60
2022-07-26T04:43:40.477Z,34.40
2022-07-26T04:48:46.367Z,34.50
2022-07-26T04:53:51.776Z,35.30
2022-07-26T04:58:57.144Z,36.10
2022-07-26T05:04:02.834Z,37.70
2022-07-26T05:09:08.411Z,37.30
2022-07-26T05:14:14.212Z,37.80
2022-07-26T05:19:20.334Z,36.50
2022-07-26T05:24:26.101Z,37.00
2022-07-26T05:29:32.234Z,36.40
2022-07-26T05:34:38.227Z,37.80
2022-07-26T05:39:43.938Z,39.30
2022-07-26T05:44:49.817Z,38.10
2022-07-26T05:49:57.138Z,40.20
2022-07-26T05:55:03.316Z,42.00
2022-07-26T06:00:14.262Z,42.30
2022-07-26T06:05:19.677Z,40.50
2022-07-26T06:10:25.225Z,41.60
2022-07-26T06:15:31.231Z,42.70
2022-07-26T06:20:37.563Z,42.20
2022-07-26T06:25:43.816Z,42.60
2022-07-26T06:30:50.961Z,42.00
2022-07-26T06:35:56.685Z,42.70
2022-07-26T06:41:02.594Z,43.80
2022-07-26T06:46:08.887Z,43.30
2022-07-26T06:51:15.288Z,43.20
2022-07-26T06:56:22.011Z,42.80
2022-07-26T07:01:58.478Z,43.00
2022-07-26T07:06:55.810Z,42.90
2022-07-26T07:12:09.376Z,43.70
2022-07-26T07:17:20.749Z,44.60
2022-07-26T07:22:26.981Z,44.90
2022-07-26T07:27:32.792Z,45.20
2022-07-26T07:32:39.887Z,44.40
2022-07-26T07:37:53.085Z,45.60
2022-07-26T07:43:00.585Z,45.80
2022-07-26T07:48:06.526Z,45.80
2022-07-26T07:53:12.608Z,45.90
2022-07-26T07:58:19.560Z,45.80
2022-07-26T08:03:25.966Z,45.40
2022-07-26T08:08:44.835Z,44.50
2022-07-26T08:13:50.652Z,44.10
2022-07-26T08:19:07.736Z,43.70
2022-07-26T08:24:15.856Z,44.00
2022-07-26T08:29:21.979Z,44.00
2022-07-26T08:34:28.008Z,43.60
2022-07-26T08:39:33.776Z,41.70
2022-07-26T08:44:39.286Z,40.30
2022-07-26T08:49:46.254Z,38.80
2022-07-26T08:54:55.051Z,37.80
2022-07-26T09:00:27.282Z,37.20
2022-07-26T09:05:38.643Z,36.90
2022-07-26T09:10:44.622Z,36.70
2022-07-26T09:15:50.569Z,36.50
2022-07-26T09:20:56.646Z,36.20
2022-07-26T09:26:06.722Z,36.10
2022-07-26T09:31:12.380Z,35.90
2022-07-26T09:36:18.911Z,35.70
2022-07-26T09:41:33.189Z,35.60
2022-07-26T09:46:58.370Z,35.30
2022-07-26T09:52:04.325Z,35.00
2022-07-26T09:57:10.425Z,34.80
2022-07-26T10:02:17.218Z,34.50
2022-07-26T10:07:23.238Z,34.20
2022-07-26T10:12:34.022Z,34.00
2022-07-26T10:17:54.205Z,33.90
2022-07-26T10:23:00.867Z,33.70
2022-07-26T10:28:12.014Z,33.60
2022-07-26T10:33:20.341Z,33.40
2022-07-26T10:38:31.061Z,33.40
2022-07-26T10:43:40.960Z,33.20
2022-07-26T10:49:10.519Z,33.20
2022-07-26T10:54:19.120Z,33.00
2022-07-26T10:59:54.987Z,32.90
2022-07-26T11:05:16.124Z,32.80
2022-07-26T11:10:34.627Z,32.70
2022-07-26T11:15:44.451Z,32.60
2022-07-26T11:20:54.820Z,32.50
2022-07-26T11:26:08.513Z,32.30
2022-07-26T11:31:16.999Z,32.20
2022-07-26T11:36:38.450Z,32.00
2022-07-26T11:41:47.871Z,31.80
2022-07-26T11:46:54.575Z,31.70
2022-07-26T11:52:05.708Z,31.60
2022-07-26T11:57:12.529Z,31.50
2022-07-26T12:02:19.479Z,31.50
2022-07-26T12:07:26.456Z,31.40
2022-07-26T12:12:33.346Z,31.30
2022-07-26T12:17:39.719Z,31.20
2022-07-26T12:22:58.160Z,31.20
2022-07-26T12:28:04.213Z,31.20
2022-07-26T12:33:10.441Z,31.10
2022-07-26T12:38:16.656Z,31.10
2022-07-26T12:43:24.425Z,31.00
2022-07-26T12:48:30.874Z,30.90
2022-07-26T12:53:39.514Z,30.80
2022-07-26T12:58:47.019Z,30.70
2022-07-26T13:03:53.923Z,30.60
2022-07-26T13:09:01.973Z,30.50
2022-07-26T13:14:09.282Z,30.40
2022-07-26T13:19:22.569Z,30.40
2022-07-26T13:24:32.362Z,30.30
2022-07-26T13:29:40.581Z,30.30
2022-07-26T13:34:50.653Z,30.30
2022-07-26T13:39:57.331Z,30.30
2022-07-26T13:45:04.882Z,30.20
2022-07-26T13:50:14.579Z,30.10
2022-07-26T13:55:23.978Z,30.00
2022-07-26T14:00:32.925Z,30.00
2022-07-26T14:05:39.567Z,29.90
2022-07-26T14:10:47.920Z,29.80
2022-07-26T14:15:54.218Z,29.80
2022-07-26T14:21:00.827Z,29.70
2022-07-26T14:26:08.519Z,29.60
2022-07-26T14:31:19.043Z,29.60
2022-07-26T14:36:26.020Z,29.50
2022-07-26T14:41:36.198Z,29.50
2022-07-26T14:46:42.560Z,29.40
2022-07-26T14:51:49.585Z,29.40
2022-07-26T14:56:56.263Z,29.40
2022-07-26T15:02:05.846Z,29.30
2022-07-26T15:07:13.330Z,29.30
2022-07-26T15:12:20.034Z,29.20
2022-07-26T15:17:27.980Z,29.10
2022-07-26T15:22:34.825Z,29.10
2022-07-26T15:27:42.274Z,29.10
2022-07-26T15:32:50.656Z,29.00
2022-07-26T15:37:57.867Z,29.00
2022-07-26T15:43:04.080Z,28.90
2022-07-26T15:48:16.067Z,28.80
2022-07-26T15:53:25.170Z,28.80
2022-07-26T15:58:32.078Z,28.80
2022-07-26T16:03:40.755Z,28.70
2022-07-26T16:09:13.996Z,28.70
2022-07-26T16:14:13.501Z,28.60
2022-07-26T16:19:20.281Z,28.70
2022-07-26T16:24:27.476Z,28.60
2022-07-26T16:29:33.501Z,28.50
2022-07-26T16:34:40.028Z,28.50
2022-07-26T16:39:46.492Z,28.50
2022-07-26T16:45:05.202Z,28.40
2022-07-26T16:50:11.710Z,28.50
2022-07-26T16:55:17.854Z,28.40
2022-07-26T17:00:24.424Z,28.30
2022-07-26T17:05:31.755Z,28.40
2022-07-26T17:10:37.870Z,28.30
2022-07-26T17:15:44.031Z,28.30
2022-07-26T17:20:50.106Z,28.30
2022-07-26T17:25:56.455Z,28.30
2022-07-26T17:31:03.135Z,28.30
2022-07-26T17:36:30.236Z,28.20
2022-07-26T17:41:36.184Z,28.20
2022-07-26T17:46:42.230Z,28.10
2022-07-26T17:51:48.285Z,28.10
2022-07-26T17:56:56.532Z,28.10
2022-07-26T18:02:02.546Z,28.10
2022-07-26T18:07:08.816Z,28.00
2022-07-26T18:12:14.833Z,28.00
2022-07-26T18:17:20.689Z,27.90
2022-07-26T18:22:27.228Z,28.00
2022-07-26T18:27:33.669Z,27.90
2022-07-26T18:32:39.628Z,27.90
2022-07-26T18:37:45.839Z,27.90
2022-07-26T18:42:52.140Z,27.90
2022-07-26T18:47:58.419Z,27.80
2022-07-26T18:53:05.794Z,27.80
2022-07-26T18:58:12.148Z,27.80
2022-07-26T19:03:18.459Z,27.80
2022-07-26T19:08:24.218Z,27.70
2022-07-26T19:13:30.148Z,27.70
2022-07-26T19:18:36.060Z,27.70
2022-07-26T19:23:42.369Z,27.60
2022-07-26T19:28:48.687Z,27.60
2022-07-26T19:33:55.111Z,27.60
2022-07-26T19:39:02.997Z,27.60
2022-07-26T19:44:09.180Z,27.60
2022-07-26T19:49:17.349Z,27.60
2022-07-26T19:54:23.671Z,27.60
2022-07-26T19:59:29.419Z,27.50
2022-07-26T20:04:35.508Z,27.50
2022-07-26T20:09:41.725Z,27.40
2022-07-26T20:14:48.409Z,27.40
2022-07-26T20:19:55.461Z,27.30
2022-07-26T20:25:01.298Z,27.30
2022-07-26T20:30:08.217Z,27.40
2022-07-26T20:35:14.151Z,27.40
2022-07-26T20:40:20.553Z,27.30
2022-07-26T20:45:27.047Z,27.30
2022-07-26T20:50:33.030Z,27.40
2022-07-26T20:55:38.995Z,27.30
2022-07-26T21:00:44.809Z,27.30
2022-07-26T21:05:50.789Z,27.20
2022-07-26T21:10:57.043Z,27.20
2022-07-26T21:16:03.576Z,27.20
2022-07-26T21:21:09.865Z,27.20
2022-07-26T21:26:15.996Z,27.20
2022-07-26T21:31:22.832Z,27.20
2022-07-26T21:36:28.819Z,27.20
2022-07-26T21:41:35.355Z,27.30
2022-07-26T21:46:41.725Z,27.30
2022-07-26T21:51:47.796Z,27.20
2022-07-26T21:56:54.805Z,27.20
2022-07-26T22:02:01.732Z,27.20
2022-07-26T22:07:07.616Z,27.10
2022-07-26T22:12:14.694Z,27.20
2022-07-26T22:17:20.627Z,27.20
2022-07-26T22:22:26.406Z,27.10
2022-07-26T22:27:33.230Z,27.10
2022-07-26T22:32:38.981Z,27.20
2022-07-26T22:37:45.369Z,27.20
2022-07-26T22:42:51.834Z,27.20
2022-07-26T22:47:58.675Z,27.20
2022-07-26T22:53:05.128Z,27.30
2022-07-26T22:58:11.408Z,27.20
2022-07-26T23:03:20.350Z,27.30
2022-07-26T23:08:46.377Z,27.30
2022-07-26T23:13:59.052Z,27.50
2022-07-26T23:19:05.685Z,27.50
2022-07-26T23:24:11.701Z,27.60
2022-07-26T23:29:17.744Z,27.70
2022-07-26T23:34:25.032Z,27.70
2022-07-26T23:39:32.039Z,27.70
2022-07-26T23:44:38.215Z,27.80
2022-07-26T23:49:45.391Z,27.90
2022-07-26T23:54:52.579Z,28.00
2022-07-26T23:59:59.131Z,28.10
